Time;durP1;ratioP1;P1;durP2;ratioP2;P2;SDS_P1;SDS_P2;PMS_P1;PMS_P2;Temp;Humidity;BMP_temperature;BMP_pressure;BME280_temperature;BME280_humidity;BME280_pressure;Samples;Min_cycle;Max_cycle;Signal;HPM_P1;HPM_P2
2022/05/06 00:00:41;;;;;;;10.18;7.50;;;;;;;9.57;72.96;97637.15;1643422;87;25686;-76
2022/05/06 00:03:09;;;;;;;10.68;8.13;;;;;;;9.52;73.14;97635.59;1643133;87;25786;-76
2022/05/06 00:05:35;;;;;;;9.93;7.42;;;;;;;9.49;73.36;97637.84;1643497;87;26210;-79
2022/05/06 00:08:02;;;;;;;8.65;7.03;;;;;;;9.48;73.44;97639.70;1643294;87;25709;-76
2022/05/06 00:10:29;;;;;;;11.28;7.83;;;;;;;9.54;73.46;97638.09;1643267;87;28215;-76
2022/05/06 00:12:55;;;;;;;9.85;7.40;;;;;;;9.58;73.45;97640.16;1643239;87;25710;-79
2022/05/06 00:15:22;;;;;;;10.10;6.97;;;;;;;9.58;73.39;97637.98;1615698;88;25648;-78
2022/05/06 00:17:48;;;;;;;8.88;7.50;;;;;;;9.54;73.47;97635.39;1643357;85;26116;-76
2022/05/06 00:20:15;;;;;;;11.90;8.08;;;;;;;9.49;73.59;97625.20;1642304;87;25768;-76
2022/05/06 00:22:43;;;;;;;13.00;8.75;;;;;;;9.50;73.70;97624.17;1609386;88;27293;-78
2022/05/06 00:25:10;;;;;;;12.93;8.93;;;;;;;9.55;73.70;97628.43;1623007;88;25781;-77
2022/05/06 00:27:43;;;;;;;11.35;9.10;;;;;;;9.57;73.65;97629.06;1623023;88;25784;-80
2022/05/06 00:30:10;;;;;;;11.95;8.93;;;;;;;9.55;73.72;97629.77;1623174;88;25992;-76
2022/05/06 00:32:37;;;;;;;13.90;8.28;;;;;;;9.51;73.79;97624.48;1672329;85;25817;-76
2022/05/06 00:35:05;;;;;;;10.85;8.23;;;;;;;9.48;73.84;97626.73;1637207;87;27501;-76
2022/05/06 00:37:32;;;;;;;16.70;8.48;;;;;;;9.45;73.97;97629.31;1609601;88;25517;-76
2022/05/06 00:39:58;;;;;;;10.03;7.78;;;;;;;9.44;74.11;97624.11;1623208;88;25708;-78
2022/05/06 00:42:25;;;;;;;13.43;7.90;;;;;;;9.45;74.17;97629.31;1623077;88;25938;-76
2022/05/06 00:44:51;;;;;;;9.60;7.37;;;;;;;9.48;74.14;97636.17;1623204;87;25761;-76
2022/05/06 00:47:20;;;;;;;9.38;6.97;;;;;;;9.49;74.14;97635.98;1623029;88;28176;-78
2022/05/06 00:49:47;;;;;;;7.87;7.08;;;;;;;9.49;74.13;97637.32;1672100;85;26458;-76
2022/05/06 00:52:17;;;;;;;8.50;6.60;;;;;;;9.47;74.05;97644.77;1637131;87;26365;-78
2022/05/06 00:54:45;;;;;;;8.40;6.65;;;;;;;9.39;74.08;97636.86;1622997;88;26009;-76
2022/05/06 00:57:12;;;;;;;10.40;6.67;;;;;;;9.37;74.21;97642.95;1672242;84;25695;-76
2022/05/06 01:02:24;;;;;;;7.72;6.45;;;;;;;9.42;74.22;97651.25;1609390;88;25826;-76
2022/05/06 01:04:52;;;;;;;7.75;6.05;;;;;;;9.44;74.19;97651.89;1609589;89;25733;-79
2022/05/06 01:07:21;;;;;;;7.45;6.40;;;;;;;9.43;74.18;97658.31;1609608;88;26719;-76
2022/05/06 01:09:49;;;;;;;9.83;6.85;;;;;;;9.45;74.14;97650.86;1609653;88;25776;-77
2022/05/06 01:12:16;;;;;;;9.25;6.55;;;;;;;9.41;74.12;97665.78;1609677;88;27664;-80
2022/05/06 01:14:43;;;;;;;12.60;6.80;;;;;;;9.43;74.22;97665.05;1653571;86;25773;-76
2022/05/06 01:17:09;;;;;;;12.03;7.08;;;;;;;9.41;74.19;97679.25;1653487;86;25812;-76
2022/05/06 01:19:36;;;;;;;11.48;7.17;;;;;;;9.36;74.22;97677.66;1653664;85;26108;-76
2022/05/06 01:22:03;;;;;;;8.28;6.92;;;;;;;9.34;74.32;97675.67;1669829;85;25864;-78
2022/05/06 01:24:29;;;;;;;10.63;6.65;;;;;;;9.34;74.33;97673.80;1676505;85;27404;-76
2022/05/06 01:27:09;;;;;;;11.45;6.75;;;;;;;9.36;74.36;97677.14;1643159;87;26098;-77
2022/05/06 01:29:37;;;;;;;8.30;6.78;;;;;;;9.32;74.35;97675.03;1615572;88;25784;-76
2022/05/06 01:32:06;;;;;;;8.90;6.60;;;;;;;9.30;74.41;97677.08;1643295;85;26061;-76
2022/05/06 01:34:35;;;;;;;8.30;6.30;;;;;;;9.29;74.46;97670.89;1643275;87;25697;-77
2022/05/06 01:37:04;;;;;;;9.10;6.90;;;;;;;9.24;74.40;97675.19;1613447;87;29394;-76
2022/05/06 01:39:36;;;;;;;8.90;7.22;;;;;;;9.19;74.45;97674.93;1627508;87;25824;-76
2022/05/06 01:42:10;;;;;;;10.05;6.85;;;;;;;9.20;74.49;97681.47;1676361;85;25256;-78
2022/05/06 01:44:42;;;;;;;9.60;7.05;;;;;;;9.20;74.45;97674.73;1675814;84;26024;-76
2022/05/06 01:47:14;;;;;;;11.35;6.42;;;;;;;9.21;74.41;97686.34;1643037;87;25504;-77
2022/05/06 01:49:42;;;;;;;7.90;6.58;;;;;;;9.22;74.43;97692.05;1577811;90;28248;-79
2022/05/06 01:52:14;;;;;;;10.82;8.28;;;;;;;9.20;74.40;97690.90;1580050;90;25988;-77
2022/05/06 01:54:41;;;;;;;10.72;8.00;;;;;;;9.19;74.35;97696.47;1552547;92;25839;-76
2022/05/06 01:57:08;;;;;;;10.28;7.50;;;;;;;9.14;74.40;97693.55;1582399;90;26062;-77
2022/05/06 01:59:34;;;;;;;13.75;9.25;;;;;;;9.11;74.56;97680.47;1582532;90;26169;-76
2022/05/06 02:02:01;;;;;;;15.68;10.70;;;;;;;9.05;74.68;97687.48;1582465;90;27611;-76
2022/05/06 02:07:13;;;;;;;19.50;11.20;;;;;;;8.94;74.93;97686.13;1582207;90;25874;-78
2022/05/06 02:09:39;;;;;;;13.20;9.95;;;;;;;8.92;75.09;97685.52;1582448;90;26100;-76
2022/05/06 02:12:08;;;;;;;11.12;8.23;;;;;;;8.91;75.21;97694.61;1582322;90;25881;-77
2022/05/06 02:14:35;;;;;;;11.93;8.63;;;;;;;8.91;75.30;97689.74;1582465;90;27494;-77
2022/05/06 02:17:01;;;;;;;17.27;11.03;;;;;;;8.93;75.45;97680.97;1582165;90;25414;-76
2022/05/06 02:19:28;;;;;;;15.98;10.93;;;;;;;8.92;75.46;97688.20;1582438;90;25837;-79
2022/05/06 02:21:54;;;;;;;19.85;11.95;;;;;;;8.93;75.56;97681.80;1582241;90;26931;-76
2022/05/06 02:24:21;;;;;;;11.78;9.00;;;;;;;8.95;75.58;97689.14;1582435;90;25815;-77
2022/05/06 02:26:47;;;;;;;14.10;8.38;;;;;;;8.94;75.68;97684.78;1582541;90;27432;-79
2022/05/06 02:29:14;;;;;;;11.90;8.45;;;;;;;8.91;75.70;97681.16;1582315;90;25771;-77
2022/05/06 02:34:25;;;;;;;14.63;9.60;;;;;;;8.91;75.96;97680.32;1582272;90;26054;-77
2022/05/06 02:36:52;;;;;;;13.32;9.25;;;;;;;8.88;76.18;97684.73;1582174;90;25891;-78
2022/05/06 02:39:19;;;;;;;11.75;9.35;;;;;;;8.89;76.22;97688.58;1582387;90;28212;-78
2022/05/06 02:41:46;;;;;;;12.90;8.95;;;;;;;8.94;76.21;97685.29;1582399;90;25861;-76
2022/05/06 02:44:13;;;;;;;15.88;10.00;;;;;;;8.99;76.26;97683.70;1582254;90;25830;-77
2022/05/06 02:46:39;;;;;;;13.72;9.38;;;;;;;9.03;76.31;97684.98;1584018;90;26188;-76
2022/05/06 02:49:06;;;;;;;12.20;9.40;;;;;;;9.07;76.34;97679.19;1585534;90;25806;-77
2022/05/06 02:51:32;;;;;;;14.13;9.08;;;;;;;9.10;76.35;97683.67;1602999;88;27572;-75
2022/05/06 02:53:59;;;;;;;13.25;9.20;;;;;;;9.15;76.36;97686.63;1649939;86;25979;-77
2022/05/06 02:56:25;;;;;;;13.72;9.13;;;;;;;9.20;76.40;97677.94;1650111;85;25764;-76
2022/05/06 02:58:52;;;;;;;15.55;10.25;;;;;;;9.22;76.44;97681.28;1650008;86;25994;-75
2022/05/06 03:01:19;;;;;;;15.78;10.38;;;;;;;9.22;76.47;97683.97;1650096;86;25780;-77
2022/05/06 03:03:45;;;;;;;15.75;9.98;;;;;;;9.28;76.48;97681.86;1650105;86;27445;-79
2022/05/06 03:06:12;;;;;;;15.18;9.50;;;;;;;9.32;76.43;97681.25;1649722;86;25772;-77
2022/05/06 03:08:39;;;;;;;12.65;9.25;;;;;;;9.38;76.44;97691.77;1650025;85;25918;-76
2022/05/06 03:11:05;;;;;;;12.00;9.20;;;;;;;9.42;76.48;97702.45;1650078;86;26623;-77
2022/05/06 03:13:32;;;;;;;16.07;9.33;;;;;;;9.44;76.48;97704.44;1650091;86;25736;-77
2022/05/06 03:15:58;;;;;;;11.95;9.45;;;;;;;9.44;76.50;97715.21;1650161;85;27394;-79
2022/05/06 03:18:26;;;;;;;12.37;9.13;;;;;;;9.38;76.48;97722.75;1650094;86;25723;-77
2022/05/06 03:20:52;;;;;;;13.38;8.75;;;;;;;9.31;76.68;97719.16;1650099;86;25787;-76
2022/05/06 03:23:20;;;;;;;10.38;8.20;;;;;;;9.26;76.75;97734.58;1637110;86;26815;-75
2022/05/06 03:25:46;;;;;;;10.78;8.80;;;;;;;9.28;76.92;97731.69;1636930;87;26076;-76
2022/05/06 03:28:13;;;;;;;12.65;8.90;;;;;;;9.28;76.98;97738.42;1636951;87;27640;-78
2022/05/06 03:30:47;;;;;;;13.48;9.15;;;;;;;9.31;77.01;97743.40;1637120;87;25791;-76
2022/05/06 03:33:16;;;;;;;10.63;8.48;;;;;;;9.36;77.06;97746.35;1637156;87;25762;-76
2022/05/06 03:35:43;;;;;;;11.60;8.00;;;;;;;9.38;77.14;97751.04;1636975;86;26182;-76
2022/05/06 03:38:09;;;;;;;10.78;8.23;;;;;;;9.35;77.11;97743.34;1637177;86;25299;-76
2022/05/06 03:40:36;;;;;;;10.95;8.50;;;;;;;9.35;77.18;97750.08;1637049;87;27572;-75
2022/05/06 03:43:03;;;;;;;13.03;8.95;;;;;;;9.41;77.19;97752.00;1636793;87;25697;-76
2022/05/06 03:45:30;;;;;;;9.70;8.70;;;;;;;9.46;77.22;97738.76;1636925;87;25506;-76
2022/05/06 03:47:59;;;;;;;11.53;8.65;;;;;;;9.46;77.33;97742.80;1637033;87;26058;-76
2022/05/06 03:53:11;;;;;;;11.30;9.48;;;;;;;9.47;77.31;97745.81;1636792;87;27442;-76
2022/05/06 03:55:38;;;;;;;10.18;8.70;;;;;;;9.50;77.34;97737.34;1637113;87;25744;-78
2022/05/06 03:58:04;;;;;;;10.48;9.15;;;;;;;9.54;77.32;97738.59;1636957;87;25285;-76
2022/05/06 04:00:31;;;;;;;15.03;9.08;;;;;;;9.58;77.30;97735.84;1637229;87;26082;-79
2022/05/06 04:02:58;;;;;;;11.80;8.53;;;;;;;9.62;77.28;97743.86;1637176;87;25792;-76
2022/05/06 04:05:24;;;;;;;15.32;9.43;;;;;;;9.65;77.23;97732.69;1611275;87;27348;-76
2022/05/06 04:07:51;;;;;;;12.35;9.43;;;;;;;9.68;77.26;97742.22;1636949;87;25809;-77
2022/05/06 04:10:18;;;;;;;14.58;10.85;;;;;;;9.68;77.30;97743.05;1637056;87;25696;-76
2022/05/06 04:12:46;;;;;;;12.68;10.20;;;;;;;9.73;77.35;97755.44;1637134;86;25978;-77
2022/05/06 04:15:13;;;;;;;15.72;11.95;;;;;;;9.77;77.34;97751.84;1637081;87;25950;-75
2022/05/06 04:17:40;;;;;;;13.70;10.90;;;;;;;9.82;77.33;97754.76;1637167;87;27463;-75
2022/05/06 04:25:38;;;;;;;14.73;12.18;;;;;;;9.93;77.30;97743.93;1636972;87;26081;-79
2022/05/06 04:28:05;;;;;;;20.20;14.07;;;;;;;9.96;77.35;97748.94;1636896;86;25797;-76
2022/05/06 04:30:31;;;;;;;17.67;13.40;;;;;;;9.99;77.45;97745.84;1636822;87;27436;-78
2022/05/06 04:32:58;;;;;;;20.00;14.87;;;;;;;10.01;77.39;97750.53;1637078;87;25677;-78
2022/05/06 04:35:25;;;;;;;17.07;14.10;;;;;;;10.05;77.50;97759.87;1636968;87;25804;-76
2022/05/06 04:37:51;;;;;;;17.50;13.20;;;;;;;10.05;77.58;97754.47;1637211;87;26142;-76
2022/05/06 04:40:18;;;;;;;16.55;12.35;;;;;;;10.05;77.50;97751.77;1637321;87;25676;-76
2022/05/06 04:42:45;;;;;;;23.07;14.18;;;;;;;10.08;77.52;97754.08;1637237;87;27401;-76
2022/05/06 04:45:12;;;;;;;16.02;14.03;;;;;;;10.10;77.56;97743.41;1636984;87;25657;-78
2022/05/06 04:47:39;;;;;;;14.83;12.95;;;;;;;10.14;77.58;97737.11;1637187;87;25713;-76
2022/05/06 04:50:07;;;;;;;15.58;13.85;;;;;;;10.20;77.70;97739.54;1637074;86;25637;-77
2022/05/06 04:52:34;;;;;;;21.68;14.45;;;;;;;10.26;77.69;97743.63;1637411;87;25720;-76
2022/05/06 04:55:01;;;;;;;18.37;14.15;;;;;;;10.30;77.60;97743.52;1637196;86;27374;-77
2022/05/06 04:57:27;;;;;;;16.60;12.98;;;;;;;10.33;77.50;97739.08;1637220;87;25251;-76
2022/05/06 04:59:54;;;;;;;15.30;13.53;;;;;;;10.38;77.57;97739.32;1637118;87;25826;-79
2022/05/06 05:02:21;;;;;;;15.65;11.55;;;;;;;10.43;77.55;97739.53;1637127;87;25984;-76
2022/05/06 05:04:52;;;;;;;15.03;11.53;;;;;;;10.50;77.57;97736.03;1637323;86;25701;-78
2022/05/06 05:07:16;;;;;;;13.95;11.40;;;;;;;10.54;77.49;97744.02;1633431;87;27578;-76
2022/05/06 05:09:42;;;;;;;14.87;11.25;;;;;;;10.56;77.42;97741.95;1637109;87;25678;-76
2022/05/06 05:12:09;;;;;;;16.40;12.55;;;;;;;10.59;77.42;97734.81;1637230;87;25702;-79
2022/05/06 05:14:36;;;;;;;16.27;12.65;;;;;;;10.65;77.52;97732.63;1637286;87;26399;-76
2022/05/06 05:17:03;;;;;;;17.95;13.00;;;;;;;10.69;77.44;97730.69;1637185;87;25716;-79
2022/05/06 05:19:29;;;;;;;20.72;13.03;;;;;;;10.76;77.40;97740.13;1637236;87;27356;-78
2022/05/06 05:21:56;;;;;;;19.15;13.55;;;;;;;10.82;77.51;97743.38;1637223;86;25742;-77
2022/05/06 05:24:23;;;;;;;20.17;15.65;;;;;;;10.87;77.59;97740.88;1636951;87;25926;-76
2022/05/06 05:26:50;;;;;;;22.65;16.42;;;;;;;10.94;77.48;97740.39;1637197;86;26629;-79
2022/05/06 05:29:17;;;;;;;20.50;16.15;;;;;;;11.00;77.46;97728.75;1636930;87;25833;-76
2022/05/06 05:31:43;;;;;;;17.82;14.03;;;;;;;11.10;77.47;97732.42;1637170;87;27568;-77
2022/05/06 05:34:10;;;;;;;19.40;14.98;;;;;;;11.18;77.48;97729.50;1637023;87;26071;-77
2022/05/06 05:36:36;;;;;;;15.98;12.95;;;;;;;11.25;77.39;97728.14;1637183;87;25853;-76
2022/05/06 05:39:03;;;;;;;15.78;12.00;;;;;;;11.31;77.35;97728.16;1637291;87;26608;-77
2022/05/06 05:41:31;;;;;;;15.38;12.55;;;;;;;11.40;77.21;97722.02;1637204;87;25736;-78
2022/05/06 05:49:27;;;;;;;23.45;15.45;;;;;;;11.73;77.23;97728.20;1637097;87;25716;-78
2022/05/06 05:51:54;;;;;;;18.23;12.90;;;;;;;11.84;77.23;97724.89;1637209;86;26043;-80
2022/05/06 05:54:21;;;;;;;14.00;11.05;;;;;;;11.92;77.11;97726.55;1637198;86;25832;-78
2022/05/06 05:56:47;;;;;;;15.83;11.50;;;;;;;11.99;76.82;97723.81;1637294;87;27381;-78
2022/05/06 05:59:14;;;;;;;13.48;10.03;;;;;;;12.06;76.68;97726.00;1637237;86;25729;-79
2022/05/06 06:01:41;;;;;;;11.63;9.48;;;;;;;12.13;76.52;97734.91;1637254;87;25392;-78
2022/05/06 06:04:07;;;;;;;10.88;9.00;;;;;;;12.22;76.33;97739.88;1637267;87;26041;-77
2022/05/06 06:06:34;;;;;;;13.80;9.63;;;;;;;12.29;76.07;97735.80;1637354;87;25438;-79
2022/05/06 06:09:01;;;;;;;12.20;9.08;;;;;;;12.36;75.89;97736.59;1637195;87;27418;-76
2022/05/06 06:11:28;;;;;;;12.05;8.53;;;;;;;12.43;75.73;97739.30;1637153;87;25522;-76
2022/05/06 06:13:54;;;;;;;11.25;9.00;;;;;;;12.44;75.61;97736.34;1637155;86;25842;-75
2022/05/06 06:16:21;;;;;;;12.25;10.28;;;;;;;12.47;75.63;97739.15;1637055;87;25942;-77
2022/05/06 06:18:47;;;;;;;10.68;9.48;;;;;;;12.50;75.77;97744.97;1637357;87;25730;-76
2022/05/06 06:21:14;;;;;;;11.53;9.58;;;;;;;12.53;75.89;97743.20;1637146;87;27559;-76
2022/05/06 06:23:40;;;;;;;10.40;8.93;;;;;;;12.57;75.86;97747.64;1641097;86;25839;-77
2022/05/06 06:26:07;;;;;;;12.28;9.03;;;;;;;12.55;75.76;97745.17;1643132;87;25262;-76
2022/05/06 06:28:34;;;;;;;16.42;10.10;;;;;;;12.52;75.72;97740.18;1643268;87;26182;-76
2022/05/06 06:31:00;;;;;;;13.20;9.53;;;;;;;12.47;75.89;97745.40;1642751;86;25293;-76
2022/05/06 06:33:27;;;;;;;14.47;11.10;;;;;;;12.45;76.02;97736.66;1645245;86;27459;-76
2022/05/06 06:35:54;;;;;;;13.15;10.03;;;;;;;12.46;76.27;97741.03;1642016;87;25255;-78
2022/05/06 06:38:20;;;;;;;12.25;10.13;;;;;;;12.45;76.30;97743.42;1641872;87;25736;-76
2022/05/06 06:40:47;;;;;;;11.45;10.18;;;;;;;12.45;76.43;97740.72;1649435;87;26034;-79
2022/05/06 06:43:13;;;;;;;13.53;10.63;;;;;;;12.44;76.62;97739.05;1675129;85;26077;-78
2022/05/06 06:45:40;;;;;;;10.85;9.70;;;;;;;12.45;76.68;97748.01;1674836;85;27525;-75
2022/05/06 06:48:07;;;;;;;13.98;10.68;;;;;;;12.46;76.61;97741.55;1675013;85;25280;-77
2022/05/06 06:50:34;;;;;;;13.40;10.30;;;;;;;12.42;76.55;97742.52;1675038;85;25798;-76
2022/05/06 06:53:02;;;;;;;11.85;10.58;;;;;;;12.41;76.71;97750.33;1674921;85;26165;-76
2022/05/06 06:55:28;;;;;;;12.85;10.32;;;;;;;12.42;76.72;97746.58;1675027;85;26703;-76
2022/05/06 06:57:55;;;;;;;11.85;10.40;;;;;;;12.45;76.75;97755.61;1675041;85;27422;-77
2022/05/06 07:00:22;;;;;;;13.25;10.48;;;;;;;12.51;76.73;97751.22;1675048;85;25821;-75
2022/05/06 07:02:49;;;;;;;13.48;10.82;;;;;;;12.53;76.71;97756.73;1674922;85;26349;-75
2022/05/06 07:05:16;;;;;;;16.85;11.25;;;;;;;12.56;76.85;97761.70;1674981;85;26167;-76
2022/05/06 07:13:12;;;;;;;17.90;10.88;;;;;;;12.59;77.06;97768.05;1675018;85;25627;-78
2022/05/06 07:15:39;;;;;;;16.50;11.88;;;;;;;12.63;77.08;97770.64;1675014;85;25709;-79
2022/05/06 07:18:06;;;;;;;13.60;11.65;;;;;;;12.68;77.19;97766.47;1674925;85;26027;-76
2022/05/06 07:20:33;;;;;;;22.32;12.85;;;;;;;12.70;77.22;97769.25;1675074;85;25704;-76
2022/05/06 07:22:59;;;;;;;26.10;13.15;;;;;;;12.73;77.29;97772.88;1676396;85;28077;-78
2022/05/06 07:25:26;;;;;;;18.17;12.13;;;;;;;12.78;77.24;97773.59;1679797;85;26224;-76
2022/05/06 07:27:53;;;;;;;21.05;16.70;;;;;;;12.84;77.17;97775.43;1680061;85;26797;-76
2022/05/06 07:30:19;;;;;;;28.30;20.65;;;;;;;12.88;77.14;97769.89;1680011;85;26061;-78
2022/05/06 07:32:46;;;;;;;27.85;21.57;;;;;;;12.93;77.15;97770.05;1680220;85;25675;-79
2022/05/06 07:35:13;;;;;;;28.40;22.35;;;;;;;12.99;77.07;97776.81;1680183;85;27565;-76
2022/05/06 07:37:41;;;;;;;24.05;19.37;;;;;;;13.03;76.97;97777.21;1680122;85;25731;-76
2022/05/06 07:40:10;;;;;;;19.45;15.23;;;;;;;13.08;76.90;97775.19;1680222;85;25264;-76
2022/05/06 07:42:43;;;;;;;21.35;14.25;;;;;;;13.11;76.65;97780.17;1680158;85;25849;-77
2022/05/06 07:45:11;;;;;;;15.03;13.38;;;;;;;13.12;76.51;97779.96;1593093;88;26170;-76
2022/05/06 07:47:38;;;;;;;16.32;12.47;;;;;;;13.14;76.39;97783.33;1593100;90;27451;-76
2022/05/06 07:50:06;;;;;;;19.90;11.65;;;;;;;13.15;76.36;97776.86;1593062;90;25305;-79
2022/05/06 07:52:33;;;;;;;16.55;12.43;;;;;;;13.14;76.32;97786.03;1593260;90;25946;-78
2022/05/06 07:55:00;;;;;;;16.23;12.25;;;;;;;13.15;76.39;97790.41;1593357;88;25979;-76
2022/05/06 07:57:26;;;;;;;14.15;11.95;;;;;;;13.15;76.52;97791.77;1593480;88;25494;-76
2022/05/06 07:59:53;;;;;;;14.50;11.65;;;;;;;13.19;76.51;97794.84;1593083;90;27803;-76
2022/05/06 08:05:07;;;;;;;21.55;14.00;;;;;;;13.18;76.33;97796.72;1593130;90;25805;-79
2022/05/06 08:07:33;;;;;;;17.57;14.83;;;;;;;13.18;76.25;97800.79;1593326;90;26002;-77
2022/05/06 08:10:06;;;;;;;21.68;16.05;;;;;;;13.17;76.29;97801.84;1593331;88;25702;-77
2022/05/06 08:12:29;;;;;;;18.73;16.52;;;;;;;13.09;76.24;97802.07;1593014;88;27679;-75
2022/05/06 08:14:56;;;;;;;18.67;16.15;;;;;;;13.01;76.31;97806.41;1593444;88;25758;-77
2022/05/06 08:17:23;;;;;;;19.07;14.90;;;;;;;13.01;76.45;97806.92;1593477;88;25747;-76
2022/05/06 08:19:49;;;;;;;20.05;14.95;;;;;;;13.01;76.34;97805.57;1593510;90;26012;-77
2022/05/06 08:22:16;;;;;;;17.17;15.13;;;;;;;13.03;76.40;97805.67;1593430;88;25361;-79
2022/05/06 08:24:43;;;;;;;17.15;15.13;;;;;;;13.03;76.47;97805.67;1583607;89;28070;-76
2022/05/06 08:27:11;;;;;;;17.82;14.85;;;;;;;13.05;76.48;97810.32;1581907;90;25521;-76
2022/05/06 08:29:37;;;;;;;19.98;15.50;;;;;;;13.02;76.55;97810.78;1581972;90;25876;-76
2022/05/06 08:32:05;;;;;;;20.08;16.62;;;;;;;12.97;76.54;97814.13;1582138;90;26156;-76
2022/05/06 08:34:31;;;;;;;20.10;15.45;;;;;;;12.98;76.66;97821.73;1582047;90;25986;-76
2022/05/06 08:36:58;;;;;;;18.62;16.42;;;;;;;12.99;76.88;97816.10;1582091;90;27566;-77
2022/05/06 08:39:25;;;;;;;19.95;15.60;;;;;;;13.03;76.92;97819.74;1581888;89;25806;-77
2022/05/06 08:41:54;;;;;;;17.85;15.98;;;;;;;13.06;77.05;97821.47;1619360;86;25761;-76
2022/05/06 08:52:43;;;;;;;26.33;17.65;;;;;;;13.22;76.74;97839.14;1666342;86;25567;-77
2022/05/06 08:55:10;;;;;;;24.50;19.00;;;;;;;13.24;76.77;97844.66;1666718;86;25758;-77
2022/05/06 08:57:39;;;;;;;25.48;19.98;;;;;;;13.26;76.65;97842.57;1666587;86;25997;-76
2022/05/06 09:00:08;;;;;;;23.10;18.40;;;;;;;13.24;76.72;97840.59;1641445;86;25740;-78
2022/05/06 09:02:40;;;;;;;21.73;17.77;;;;;;;13.26;76.87;97833.08;1666509;86;27609;-78
2022/05/06 09:05:20;;;;;;;22.60;17.48;;;;;;;13.31;77.10;97840.54;1666567;86;25762;-78
2022/05/06 09:08:02;;;;;;;20.45;18.20;;;;;;;13.29;77.18;97842.11;1666500;86;25694;-76
2022/05/06 09:10:30;;;;;;;24.65;18.92;;;;;;;13.24;77.09;97837.88;1666704;86;26165;-75
2022/05/06 09:13:02;;;;;;;27.70;21.70;;;;;;;13.22;77.31;97842.69;1666505;86;25848;-75
2022/05/06 09:18:22;;;;;;;26.35;21.77;;;;;;;13.27;77.56;97845.59;1623779;88;25940;-75
2022/05/06 09:20:50;;;;;;;25.08;20.82;;;;;;;13.28;77.53;97839.64;1620337;88;25816;-75
2022/05/06 09:23:28;;;;;;;29.05;20.05;;;;;;;13.32;77.44;97838.14;1618768;88;26718;-77
2022/05/06 09:25:56;;;;;;;27.13;20.25;;;;;;;13.37;77.37;97833.43;1612127;88;25863;-76
2022/05/06 09:28:28;;;;;;;24.10;18.57;;;;;;;13.40;77.55;97830.29;1612321;88;28362;-75
2022/05/06 09:31:08;;;;;;;18.92;16.82;;;;;;;13.43;77.67;97832.53;1612233;88;26005;-75
2022/05/06 09:33:42;;;;;;;21.23;15.40;;;;;;;13.47;77.68;97833.25;1563340;91;25853;-75
2022/05/06 09:36:29;;;;;;;26.07;19.87;;;;;;;13.51;77.75;97829.06;1570459;91;26054;-75
2022/05/06 09:39:09;;;;;;;28.65;20.72;;;;;;;13.53;77.82;97827.45;1570636;91;26001;-75
2022/05/06 09:41:40;;;;;;;34.13;22.07;;;;;;;13.57;77.95;97825.97;1517334;94;27524;-77
2022/05/06 09:44:10;;;;;;;30.17;19.90;;;;;;;13.65;77.91;97829.77;1517192;94;25909;-76
2022/05/06 09:46:37;;;;;;;21.30;17.75;;;;;;;13.70;77.87;97836.73;1492654;96;26023;-77
2022/05/06 09:49:05;;;;;;;24.12;19.25;;;;;;;13.76;77.91;97833.14;1492881;96;26108;-75
2022/05/06 09:51:34;;;;;;;25.27;18.45;;;;;;;13.82;77.71;97828.17;1492602;96;25915;-77
2022/05/06 09:54:03;;;;;;;18.60;15.10;;;;;;;13.89;77.67;97835.72;1492572;96;27468;-76
2022/05/06 09:56:30;;;;;;;21.55;15.45;;;;;;;13.96;77.51;97837.88;1492636;96;25883;-76
2022/05/06 09:58:57;;;;;;;21.97;16.82;;;;;;;14.02;77.25;97835.61;1492966;96;25750;-78
2022/05/06 10:01:24;;;;;;;23.52;19.15;;;;;;;14.08;77.25;97837.14;1492830;96;26854;-77
2022/05/06 10:03:54;;;;;;;25.60;19.77;;;;;;;14.11;77.12;97838.89;1492769;96;26081;-76
2022/05/06 10:06:25;;;;;;;25.08;20.92;;;;;;;14.19;77.24;97839.13;1492972;96;27403;-76
2022/05/06 10:08:57;;;;;;;26.10;20.20;;;;;;;14.23;77.17;97841.70;1492823;96;25852;-76
2022/05/06 10:11:28;;;;;;;27.82;18.30;;;;;;;14.32;77.31;97845.78;1488261;96;25853;-76
2022/05/06 10:14:00;;;;;;;26.50;20.55;;;;;;;14.43;77.19;97849.14;1485124;96;26187;-76
2022/05/06 10:16:36;;;;;;;28.50;21.37;;;;;;;14.52;77.07;97846.42;1485215;96;25907;-76
2022/05/06 10:19:04;;;;;;;33.65;24.98;;;;;;;14.62;76.95;97837.74;1500379;94;27585;-76
2022/05/06 10:21:49;;;;;;;31.55;24.10;;;;;;;14.73;76.94;97835.66;1513023;94;25882;-76
2022/05/06 10:24:17;;;;;;;33.53;21.52;;;;;;;14.82;76.79;97837.00;1498709;95;25777;-77
2022/05/06 10:26:50;;;;;;;28.25;22.45;;;;;;;14.90;76.63;97828.53;1498830;95;26838;-76
2022/05/06 10:32:54;;;;;;;24.15;18.02;;;;;;;14.92;75.94;97830.48;1466389;97;27537;-77
2022/05/06 10:35:39;;;;;;;19.45;15.25;;;;;;;14.94;76.03;97824.83;1466430;97;25721;-76
2022/05/06 10:38:26;;;;;;;18.05;16.07;;;;;;;14.98;75.78;97824.13;1505069;94;26141;-76
2022/05/06 10:40:57;;;;;;;20.32;15.95;;;;;;;15.01;75.61;97819.59;1507458;94;25990;-76
2022/05/06 10:43:49;;;;;;;21.30;15.83;;;;;;;15.00;75.60;97823.37;1480214;95;25834;-77
2022/05/06 10:46:37;;;;;;;20.88;16.32;;;;;;;15.04;75.83;97818.31;1448587;99;27486;-76
2022/05/06 10:49:43;;;;;;;20.50;15.50;;;;;;;15.10;75.82;97818.73;1451031;98;25594;-78
2022/05/06 10:52:25;;;;;;;16.42;13.95;;;;;;;15.15;75.65;97820.25;1451129;98;25846;-76
2022/05/06 10:55:00;;;;;;;14.83;13.18;;;;;;;15.23;75.62;97822.64;1451155;97;26653;-77
2022/05/06 10:57:29;;;;;;;17.15;13.05;;;;;;;15.28;75.34;97820.06;1450901;97;25959;-76
2022/05/06 11:00:01;;;;;;;18.62;13.25;;;;;;;15.27;75.21;97808.05;1451091;98;28506;-77
2022/05/06 11:02:32;;;;;;;15.70;13.50;;;;;;;15.34;75.22;97810.13;1479710;95;25631;-77
2022/05/06 11:05:06;;;;;;;18.73;14.38;;;;;;;15.33;74.81;97806.62;1503147;94;25838;-77
2022/05/06 11:07:35;;;;;;;16.10;14.35;;;;;;;15.31;74.64;97803.30;1483612;95;26221;-76
2022/05/06 11:10:17;;;;;;;16.85;14.80;;;;;;;15.34;74.76;97808.25;1502101;94;25782;-78
2022/05/06 11:12:50;;;;;;;17.90;14.65;;;;;;;15.38;74.75;97805.37;1496998;94;27682;-77
2022/05/06 11:15:23;;;;;;;18.87;14.33;;;;;;;15.41;74.88;97802.20;1520788;93;26052;-77
2022/05/06 11:17:53;;;;;;;14.83;13.13;;;;;;;15.48;74.96;97805.63;1538647;91;25908;-76
2022/05/06 11:20:29;;;;;;;18.15;14.73;;;;;;;15.52;74.87;97805.17;1538469;92;26864;-77
2022/05/06 11:23:02;;;;;;;17.42;14.07;;;;;;;15.56;74.97;97798.24;1538598;92;26835;-76
2022/05/06 11:25:38;;;;;;;18.80;14.78;;;;;;;15.58;74.82;97796.13;1536973;92;28250;-76
2022/05/06 11:28:16;;;;;;;17.17;14.68;;;;;;;15.59;74.63;97797.75;1525824;94;25853;-76
2022/05/06 11:30:48;;;;;;;17.62;14.75;;;;;;;15.54;74.59;97800.33;1526099;94;25883;-77
2022/05/06 11:33:27;;;;;;;18.70;14.63;;;;;;;15.53;74.58;97798.67;1526190;94;26242;-78
2022/05/06 11:36:03;;;;;;;19.85;15.63;;;;;;;15.54;74.63;97804.41;1526112;94;25839;-77
2022/05/06 11:38:42;;;;;;;23.85;15.13;;;;;;;15.61;74.43;97799.72;1526233;94;27393;-76
2022/05/06 11:41:12;;;;;;;21.80;14.73;;;;;;;15.65;74.30;97799.55;1539948;92;25771;-77
2022/05/06 11:43:42;;;;;;;16.70;14.93;;;;;;;15.69;74.42;97791.23;1549127;92;25356;-77
2022/05/06 11:49:02;;;;;;;19.67;15.32;;;;;;;15.82;74.15;97795.06;1548884;92;26051;-76
2022/05/06 11:51:44;;;;;;;21.48;16.45;;;;;;;15.91;73.92;97798.30;1548917;92;28348;-76
2022/05/06 11:54:14;;;;;;;18.87;16.30;;;;;;;15.96;73.99;97799.75;1547841;92;25607;-77
2022/05/06 11:56:43;;;;;;;17.30;15.50;;;;;;;16.00;73.83;97803.14;1548795;91;25775;-76
2022/05/06 11:59:12;;;;;;;19.57;16.70;;;;;;;16.04;73.62;97794.81;1549140;92;25859;-78
2022/05/06 12:01:41;;;;;;;18.27;14.58;;;;;;;16.09;73.37;97805.80;1557678;91;25874;-77
2022/05/06 12:04:10;;;;;;;16.55;14.40;;;;;;;16.06;73.37;97802.19;1576517;89;27501;-77
2022/05/06 12:06:41;;;;;;;16.32;13.55;;;;;;;15.97;73.31;97798.16;1595828;86;25939;-78
2022/05/06 12:09:22;;;;;;;15.28;12.25;;;;;;;16.01;73.34;97799.89;1647528;86;25380;-78
2022/05/06 12:12:08;;;;;;;17.52;13.85;;;;;;;16.04;73.13;97801.61;1624031;87;26812;-77
2022/05/06 12:14:35;;;;;;;20.55;14.18;;;;;;;16.10;72.95;97805.27;1624174;88;25574;-77
2022/05/06 12:17:11;;;;;;;15.78;13.30;;;;;;;16.15;72.87;97806.23;1631275;86;27471;-77
2022/05/06 12:19:41;;;;;;;14.73;12.85;;;;;;;16.20;72.72;97799.52;1637762;86;25741;-77